Time;durP1;ratioP1;P1;durP2;ratioP2;P2;SDS_P1;SDS_P2;PMS_P1;PMS_P2;Temp;Humidity;BMP_temperature;BMP_pressure;BME280_temperature;BME280_humidity;BME280_pressure;Samples;Min_cycle;Max_cycle;Signal;HPM_P1;HPM_P2
2021/12/27 00:00:44;;;;;;;23.00;12.38;;;;;;;;;;5129323;28;20033;-72
2021/12/27 00:03:11;;;;;;;19.17;12.43;;;;;;;;;;5129636;27;20037;-71
2021/12/27 00:05:37;;;;;;;23.33;13.52;;;;;;;;;;5129327;28;20519;-72
2021/12/27 00:08:04;;;;;;;22.70;13.52;;;;;;;;;;5129455;28;20034;-72
2021/12/27 00:10:31;;;;;;;21.40;13.38;;;;;;;;;;5132245;28;20028;-72
2021/12/27 00:12:58;;;;;;;24.50;14.45;;;;;;;;;;5129131;28;20021;-72
2021/12/27 00:15:25;;;;;;;20.73;12.70;;;;;;;;;;5128988;28;20437;-72
2021/12/27 00:17:52;;;;;;;19.60;11.90;;;;;;;;;;5110802;28;20019;-72
2021/12/27 00:20:19;;;;;;;19.10;11.50;;;;;;;;;;5129337;28;20015;-71
2021/12/27 00:22:46;;;;;;;19.45;12.35;;;;;;;;;;5131211;28;20026;-72
2021/12/27 00:25:13;;;;;;;17.00;11.52;;;;;;;;;;5130139;28;20031;-72
2021/12/27 00:27:39;;;;;;;19.20;12.32;;;;;;;;;;5132550;27;20274;-71
2021/12/27 00:30:06;;;;;;;21.00;12.23;;;;;;;;;;5132994;27;20023;-72
2021/12/27 00:32:36;;;;;;;21.17;11.80;;;;;;;;;;5133140;27;20500;-72
2021/12/27 00:35:03;;;;;;;21.13;11.77;;;;;;;;;;5134630;27;20016;-72
2021/12/27 00:37:30;;;;;;;25.08;12.55;;;;;;;;;;5136740;27;20045;-72
2021/12/27 00:39:56;;;;;;;19.23;11.95;;;;;;;;;;5132831;27;20047;-72
2021/12/27 00:42:23;;;;;;;21.30;12.40;;;;;;;;;;5133084;27;20027;-72
2021/12/27 00:44:49;;;;;;;23.90;12.90;;;;;;;;;;5132936;27;20039;-72
2021/12/27 00:47:16;;;;;;;23.38;12.02;;;;;;;;;;5132909;27;20497;-72
2021/12/27 00:49:42;;;;;;;20.92;12.60;;;;;;;;;;5135425;27;20027;-72
2021/12/27 00:52:09;;;;;;;16.95;11.35;;;;;;;;;;5133498;27;20023;-72
2021/12/27 00:54:35;;;;;;;19.77;10.93;;;;;;;;;;5132566;27;20023;-72
2021/12/27 00:57:01;;;;;;;19.05;11.60;;;;;;;;;;5132788;27;20041;-72
2021/12/27 00:59:28;;;;;;;22.33;12.45;;;;;;;;;;5132738;27;20019;-72
2021/12/27 01:01:54;;;;;;;20.88;12.70;;;;;;;;;;5131749;27;20031;-72
2021/12/27 01:04:20;;;;;;;18.48;11.00;;;;;;;;;;5132164;27;20033;-72
2021/12/27 01:06:47;;;;;;;19.63;11.73;;;;;;;;;;5132627;27;20023;-72
2021/12/27 01:09:21;;;;;;;19.38;11.50;;;;;;;;;;5132172;27;20027;-72
2021/12/27 01:14:39;;;;;;;15.52;10.25;;;;;;;;;;5133784;27;20021;-72
2021/12/27 01:17:05;;;;;;;18.10;10.95;;;;;;;;;;5132841;27;20039;-72
2021/12/27 01:19:31;;;;;;;23.40;12.25;;;;;;;;;;5134882;27;20387;-72
2021/12/27 01:21:58;;;;;;;21.02;11.77;;;;;;;;;;5132206;27;20485;-72
2021/12/27 01:24:24;;;;;;;16.50;10.70;;;;;;;;;;5132120;27;20030;-72
2021/12/27 01:26:50;;;;;;;18.90;10.88;;;;;;;;;;5132118;27;20019;-72
2021/12/27 01:29:17;;;;;;;16.80;10.35;;;;;;;;;;5132144;27;20397;-72
2021/12/27 01:31:43;;;;;;;15.25;10.25;;;;;;;;;;5134815;27;20026;-72
2021/12/27 01:34:10;;;;;;;18.98;9.88;;;;;;;;;;5132986;27;20381;-72
2021/12/27 01:36:36;;;;;;;17.33;10.13;;;;;;;;;;5131763;27;20038;-72
2021/12/27 01:39:04;;;;;;;20.05;10.98;;;;;;;;;;5130755;27;20030;-72
2021/12/27 01:41:30;;;;;;;16.80;9.20;;;;;;;;;;5132199;27;20018;-72
2021/12/27 01:43:57;;;;;;;13.60;8.63;;;;;;;;;;5114745;27;20027;-72
2021/12/27 01:46:26;;;;;;;16.63;8.60;;;;;;;;;;5133635;27;20041;-72
2021/12/27 01:48:55;;;;;;;12.95;7.60;;;;;;;;;;5131047;27;20050;-72
2021/12/27 01:51:24;;;;;;;13.93;7.97;;;;;;;;;;5131494;27;20043;-72
2021/12/27 01:53:50;;;;;;;12.95;8.10;;;;;;;;;;5132777;27;20023;-72
2021/12/27 01:56:20;;;;;;;13.45;7.57;;;;;;;;;;5131326;27;20030;-71
2021/12/27 01:58:47;;;;;;;12.13;7.35;;;;;;;;;;5134207;27;20029;-72
2021/12/27 02:01:13;;;;;;;12.43;7.38;;;;;;;;;;5132360;27;20057;-72
2021/12/27 02:03:43;;;;;;;14.07;8.02;;;;;;;;;;5131271;27;20027;-72
2021/12/27 02:06:11;;;;;;;16.60;8.05;;;;;;;;;;5131303;27;20416;-72
2021/12/27 02:08:39;;;;;;;11.35;7.53;;;;;;;;;;5131238;27;20430;-72
2021/12/27 02:11:06;;;;;;;12.82;8.27;;;;;;;;;;5115297;27;20023;-72
2021/12/27 02:13:33;;;;;;;16.38;8.75;;;;;;;;;;5134803;27;20026;-72
2021/12/27 02:15:59;;;;;;;21.70;9.38;;;;;;;;;;5131046;27;20027;-72
2021/12/27 02:18:26;;;;;;;15.95;8.75;;;;;;;;;;5130904;27;20041;-72
2021/12/27 02:20:52;;;;;;;16.20;8.98;;;;;;;;;;5131097;27;20019;-72
2021/12/27 02:23:19;;;;;;;14.50;7.65;;;;;;;;;;5130986;27;20016;-72
2021/12/27 02:25:50;;;;;;;10.23;6.18;;;;;;;;;;5133424;27;20023;-72
2021/12/27 02:28:17;;;;;;;12.38;5.78;;;;;;;;;;5132100;27;20527;-72
2021/12/27 02:30:44;;;;;;;9.82;5.75;;;;;;;;;;5130634;27;20023;-72
2021/12/27 02:33:11;;;;;;;10.43;6.10;;;;;;;;;;5131738;27;20031;-72
2021/12/27 02:35:43;;;;;;;10.70;5.90;;;;;;;;;;5130771;27;20027;-72
2021/12/27 02:38:14;;;;;;;9.23;5.10;;;;;;;;;;5114900;27;20023;-71
2021/12/27 02:40:41;;;;;;;12.25;5.40;;;;;;;;;;5133472;27;20026;-72
2021/12/27 02:43:07;;;;;;;11.63;6.43;;;;;;;;;;5131118;27;20033;-72
2021/12/27 02:45:35;;;;;;;9.90;6.53;;;;;;;;;;5111680;27;20048;-71
2021/12/27 02:48:01;;;;;;;10.82;5.82;;;;;;;;;;5130439;27;20061;-72
2021/12/27 02:50:27;;;;;;;11.98;7.60;;;;;;;;;;5130254;27;20020;-72
2021/12/27 02:52:55;;;;;;;11.93;7.25;;;;;;;;;;5132467;27;20041;-73
2021/12/27 02:55:21;;;;;;;11.80;7.00;;;;;;;;;;5131922;27;20031;-71
2021/12/27 02:57:50;;;;;;;14.85;7.60;;;;;;;;;;5130545;27;20031;-72
2021/12/27 03:00:18;;;;;;;12.15;7.65;;;;;;;;;;5111894;27;20023;-72
2021/12/27 03:02:46;;;;;;;12.77;6.93;;;;;;;;;;5130113;27;20037;-72
2021/12/27 03:05:13;;;;;;;10.43;6.93;;;;;;;;;;5130449;27;20020;-72
2021/12/27 03:07:40;;;;;;;12.02;5.78;;;;;;;;;;5133518;27;20019;-71
2021/12/27 03:10:07;;;;;;;13.05;4.65;;;;;;;;;;5112439;27;20500;-72
2021/12/27 03:12:34;;;;;;;14.13;4.95;;;;;;;;;;5131310;27;20029;-72
2021/12/27 03:15:00;;;;;;;6.90;4.68;;;;;;;;;;5129948;27;20038;-72
2021/12/27 03:17:27;;;;;;;8.77;5.50;;;;;;;;;;5130130;27;20023;-72
2021/12/27 03:19:53;;;;;;;10.00;4.88;;;;;;;;;;5131977;27;20029;-72
2021/12/27 03:22:19;;;;;;;9.52;5.55;;;;;;;;;;5131353;27;20035;-72
2021/12/27 03:24:46;;;;;;;7.20;4.65;;;;;;;;;;5111423;27;20023;-72
2021/12/27 03:27:12;;;;;;;7.20;4.40;;;;;;;;;;5129736;27;20383;-72
2021/12/27 03:29:38;;;;;;;10.50;6.00;;;;;;;;;;5129526;27;20026;-72
2021/12/27 03:32:05;;;;;;;12.25;6.68;;;;;;;;;;5111976;27;20027;-71
2021/12/27 03:34:33;;;;;;;15.90;8.35;;;;;;;;;;5132595;27;20086;-72
2021/12/27 03:37:00;;;;;;;14.27;8.25;;;;;;;;;;5111129;27;20477;-72
2021/12/27 03:39:26;;;;;;;12.73;6.65;;;;;;;;;;5129732;27;20027;-72
2021/12/27 03:41:53;;;;;;;11.27;6.85;;;;;;;;;;5129468;27;20018;-72
2021/12/27 03:44:19;;;;;;;13.63;7.60;;;;;;;;;;5129133;27;20035;-72
2021/12/27 03:46:46;;;;;;;10.52;6.68;;;;;;;;;;5132343;27;20027;-72
2021/12/27 03:49:12;;;;;;;14.93;7.60;;;;;;;;;;5130588;27;20404;-72
2021/12/27 03:51:43;;;;;;;21.23;9.65;;;;;;;;;;5130871;27;20034;-72
2021/12/27 03:54:09;;;;;;;14.65;8.80;;;;;;;;;;5129570;27;20031;-72
2021/12/27 03:56:36;;;;;;;17.13;9.85;;;;;;;;;;5129509;27;20031;-72
2021/12/27 03:59:21;;;;;;;16.10;9.10;;;;;;;;;;5130063;28;20131;-72
2021/12/27 04:01:47;;;;;;;17.65;9.00;;;;;;;;;;5128859;27;20041;-72
2021/12/27 04:04:14;;;;;;;15.52;8.73;;;;;;;;;;5130451;28;20027;-72
2021/12/27 04:06:40;;;;;;;15.05;9.10;;;;;;;;;;5129328;28;20042;-72
2021/12/27 04:09:07;;;;;;;12.65;7.60;;;;;;;;;;5129180;28;20401;-71
2021/12/27 04:11:33;;;;;;;13.75;8.40;;;;;;;;;;5129343;28;20023;-71
2021/12/27 04:14:02;;;;;;;16.02;8.88;;;;;;;;;;5130024;28;20465;-70
2021/12/27 04:16:29;;;;;;;16.05;8.05;;;;;;;;;;5131836;28;20039;-71
2021/12/27 04:18:55;;;;;;;12.50;7.22;;;;;;;;;;5129132;28;20023;-72
2021/12/27 04:21:22;;;;;;;14.13;7.63;;;;;;;;;;5129115;28;20031;-72
2021/12/27 04:23:48;;;;;;;13.68;7.50;;;;;;;;;;5129273;28;20015;-72
2021/12/27 04:26:14;;;;;;;10.05;6.40;;;;;;;;;;5129211;28;20023;-72
2021/12/27 04:28:41;;;;;;;9.02;6.10;;;;;;;;;;5131339;28;20140;-73
2021/12/27 04:31:07;;;;;;;13.05;5.57;;;;;;;;;;5131098;28;20023;-72
2021/12/27 04:33:33;;;;;;;10.40;5.45;;;;;;;;;;5128865;28;20027;-71
2021/12/27 04:36:00;;;;;;;8.68;5.05;;;;;;;;;;5129359;27;20039;-72
2021/12/27 04:38:26;;;;;;;9.07;5.63;;;;;;;;;;5128871;28;20508;-72
2021/12/27 04:40:53;;;;;;;11.38;5.68;;;;;;;;;;5131237;28;20019;-72
2021/12/27 04:43:21;;;;;;;9.20;5.72;;;;;;;;;;5130024;28;20393;-71
2021/12/27 04:45:48;;;;;;;9.77;4.95;;;;;;;;;;5128723;28;20043;-71
2021/12/27 04:48:14;;;;;;;6.55;4.32;;;;;;;;;;5129000;28;20042;-72
2021/12/27 04:50:41;;;;;;;8.02;4.20;;;;;;;;;;5128788;28;20019;-73
2021/12/27 04:53:07;;;;;;;5.45;3.80;;;;;;;;;;5129137;28;20023;-71
2021/12/27 04:55:37;;;;;;;8.57;4.63;;;;;;;;;;5127623;28;20026;-71
2021/12/27 04:58:04;;;;;;;8.15;4.68;;;;;;;;;;5128496;28;20037;-72
2021/12/27 05:00:31;;;;;;;11.63;4.78;;;;;;;;;;5129064;28;20023;-72
2021/12/27 05:02:58;;;;;;;7.35;4.65;;;;;;;;;;5128717;28;20019;-72
2021/12/27 05:05:25;;;;;;;6.80;4.45;;;;;;;;;;5128730;28;20019;-72
2021/12/27 05:07:52;;;;;;;9.00;4.90;;;;;;;;;;5130312;28;20027;-72
2021/12/27 05:10:18;;;;;;;10.60;4.72;;;;;;;;;;5132149;28;20033;-72
2021/12/27 05:12:45;;;;;;;8.63;4.90;;;;;;;;;;5128304;27;20033;-72
2021/12/27 05:15:11;;;;;;;9.50;4.85;;;;;;;;;;5113957;27;20408;-72
2021/12/27 05:17:38;;;;;;;7.22;4.35;;;;;;;;;;5132283;27;20031;-72
2021/12/27 05:20:05;;;;;;;8.88;4.65;;;;;;;;;;5132770;27;20022;-72
2021/12/27 05:22:32;;;;;;;12.23;5.78;;;;;;;;;;5135204;27;20366;-72
2021/12/27 05:24:59;;;;;;;13.52;7.10;;;;;;;;;;5132089;27;20044;-72
2021/12/27 05:27:25;;;;;;;11.82;7.65;;;;;;;;;;5131885;27;20079;-72
2021/12/27 05:29:51;;;;;;;15.73;7.40;;;;;;;;;;5132266;27;20007;-71
2021/12/27 05:32:18;;;;;;;13.43;7.25;;;;;;;;;;5131928;27;20022;-72
2021/12/27 05:34:44;;;;;;;11.32;7.72;;;;;;;;;;5116446;27;20045;-71
2021/12/27 05:37:10;;;;;;;12.18;7.45;;;;;;;;;;5132858;27;20035;-72
2021/12/27 05:39:37;;;;;;;10.57;7.47;;;;;;;;;;5131494;27;20392;-71
2021/12/27 05:42:03;;;;;;;9.77;6.28;;;;;;;;;;5131601;27;20027;-72
2021/12/27 05:44:30;;;;;;;12.20;7.50;;;;;;;;;;5131537;27;20038;-72
2021/12/27 05:46:57;;;;;;;13.52;7.32;;;;;;;;;;5133174;27;20035;-72
2021/12/27 05:49:24;;;;;;;10.85;6.82;;;;;;;;;;5135364;27;20037;-72
2021/12/27 05:51:50;;;;;;;11.05;7.15;;;;;;;;;;5131428;27;20027;-72
2021/12/27 05:54:19;;;;;;;10.68;6.93;;;;;;;;;;5131399;27;20028;-72
2021/12/27 05:56:45;;;;;;;9.60;6.35;;;;;;;;;;5131591;27;20019;-72
2021/12/27 05:59:16;;;;;;;14.40;6.00;;;;;;;;;;5131462;27;20499;-72
2021/12/27 06:01:43;;;;;;;14.00;6.00;;;;;;;;;;5134141;27;20016;-72
2021/12/27 06:04:10;;;;;;;12.93;6.47;;;;;;;;;;5133667;27;20497;-72
2021/12/27 06:06:37;;;;;;;9.13;6.22;;;;;;;;;;5131473;27;20397;-71
2021/12/27 06:09:04;;;;;;;10.25;6.30;;;;;;;;;;5131399;27;20019;-72
2021/12/27 06:11:30;;;;;;;7.60;5.65;;;;;;;;;;5131223;27;20029;-72
2021/12/27 06:13:57;;;;;;;11.52;6.30;;;;;;;;;;5133345;27;20026;-72
2021/12/27 06:16:23;;;;;;;9.38;5.65;;;;;;;;;;5133197;27;20057;-72
2021/12/27 06:18:49;;;;;;;10.55;5.75;;;;;;;;;;5131486;27;20023;-72
2021/12/27 06:21:16;;;;;;;8.40;5.53;;;;;;;;;;5130918;27;20035;-72
2021/12/27 06:23:43;;;;;;;11.55;5.28;;;;;;;;;;5130043;27;20434;-72
2021/12/27 06:26:09;;;;;;;16.25;7.57;;;;;;;;;;5132749;27;20015;-72
2021/12/27 06:28:36;;;;;;;16.63;8.50;;;;;;;;;;5134602;27;20027;-72
2021/12/27 06:31:02;;;;;;;15.98;8.50;;;;;;;;;;5130780;27;20066;-71
2021/12/27 06:33:29;;;;;;;8.65;5.32;;;;;;;;;;5130913;27;20039;-72
2021/12/27 06:35:56;;;;;;;9.60;5.63;;;;;;;;;;5130515;27;20375;-72
2021/12/27 06:38:22;;;;;;;11.48;6.30;;;;;;;;;;5130497;27;20023;-72
2021/12/27 06:40:49;;;;;;;15.55;6.68;;;;;;;;;;5133142;27;20027;-72
2021/12/27 06:43:16;;;;;;;11.07;6.88;;;;;;;;;;5131538;27;20031;-72
2021/12/27 06:45:43;;;;;;;13.20;6.68;;;;;;;;;;5130191;27;20049;-72
2021/12/27 06:48:09;;;;;;;13.52;7.90;;;;;;;;;;5111981;27;20031;-71
2021/12/27 06:50:35;;;;;;;18.38;8.27;;;;;;;;;;5130279;27;20024;-72
2021/12/27 06:53:02;;;;;;;12.95;8.00;;;;;;;;;;5131096;27;20027;-72
2021/12/27 06:55:28;;;;;;;15.75;8.30;;;;;;;;;;5133035;27;20458;-72
2021/12/27 06:57:54;;;;;;;13.63;8.52;;;;;;;;;;5130092;27;20026;-72
2021/12/27 07:00:21;;;;;;;17.25;8.38;;;;;;;;;;5130278;27;20050;-71
2021/12/27 07:02:47;;;;;;;13.20;7.78;;;;;;;;;;5130160;27;20029;-72
2021/12/27 07:05:14;;;;;;;15.30;9.57;;;;;;;;;;5131627;27;20438;-72
2021/12/27 07:07:41;;;;;;;15.95;9.65;;;;;;;;;;5132962;27;20037;-71
2021/12/27 07:10:09;;;;;;;14.95;8.55;;;;;;;;;;5130793;27;20015;-72
2021/12/27 07:12:36;;;;;;;11.25;7.15;;;;;;;;;;5130057;27;20477;-72
2021/12/27 07:15:02;;;;;;;13.65;7.80;;;;;;;;;;5130264;27;20029;-72
2021/12/27 07:17:29;;;;;;;9.38;5.78;;;;;;;;;;5130052;27;20051;-72
2021/12/27 07:19:55;;;;;;;7.93;5.45;;;;;;;;;;5113301;27;20076;-71
2021/12/27 07:22:21;;;;;;;7.68;5.10;;;;;;;;;;5131553;27;20023;-72
2021/12/27 07:24:48;;;;;;;7.63;4.70;;;;;;;;;;5129752;27;20029;-72
2021/12/27 07:27:14;;;;;;;8.40;4.78;;;;;;;;;;5129765;27;20027;-72
2021/12/27 07:29:40;;;;;;;9.02;4.93;;;;;;;;;;5111344;27;20021;-72
2021/12/27 07:32:07;;;;;;;9.80;5.07;;;;;;;;;;5095382;27;20537;-71
2021/12/27 07:34:34;;;;;;;7.78;5.07;;;;;;;;;;5133052;27;20019;-72
2021/12/27 07:37:00;;;;;;;8.63;5.22;;;;;;;;;;5128835;27;20034;-71
2021/12/27 07:39:27;;;;;;;10.65;5.32;;;;;;;;;;5111131;27;20030;-72
2021/12/27 07:41:54;;;;;;;8.30;4.78;;;;;;;;;;5129372;27;20034;-72
2021/12/27 07:44:21;;;;;;;14.60;7.03;;;;;;;;;;5112540;28;20019;-72
2021/12/27 07:46:51;;;;;;;19.08;11.52;;;;;;;;;;5132003;27;20027;-71
2021/12/27 07:49:18;;;;;;;29.23;13.82;;;;;;;;;;5130420;27;20025;-71
2021/12/27 07:51:44;;;;;;;29.02;16.33;;;;;;;;;;5129501;27;20027;-72
2021/12/27 07:54:11;;;;;;;29.25;15.73;;;;;;;;;;5129438;27;20023;-72
2021/12/27 07:56:38;;;;;;;25.25;13.60;;;;;;;;;;5129198;27;20477;-72
2021/12/27 07:59:05;;;;;;;25.67;13.50;;;;;;;;;;5130166;27;20036;-72
2021/12/27 08:01:32;;;;;;;36.17;18.83;;;;;;;;;;5132482;28;20026;-72
2021/12/27 08:03:58;;;;;;;33.65;17.02;;;;;;;;;;5129167;28;20408;-72
2021/12/27 08:06:25;;;;;;;29.70;15.27;;;;;;;;;;5128936;28;20019;-72
2021/12/27 08:08:51;;;;;;;35.65;16.63;;;;;;;;;;5129476;28;20015;-72
2021/12/27 08:11:17;;;;;;;28.17;14.18;;;;;;;;;;5129422;28;20054;-72
2021/12/27 08:13:44;;;;;;;31.45;16.20;;;;;;;;;;5132267;28;20023;-72
2021/12/27 08:16:10;;;;;;;31.33;16.42;;;;;;;;;;5131296;28;20435;-72
2021/12/27 08:18:37;;;;;;;29.17;14.45;;;;;;;;;;5129125;28;20023;-72
2021/12/27 08:21:04;;;;;;;31.50;16.58;;;;;;;;;;5128686;28;20053;-72
2021/12/27 08:23:30;;;;;;;34.78;18.73;;;;;;;;;;5130679;28;20023;-72
2021/12/27 08:25:56;;;;;;;42.38;18.80;;;;;;;;;;5112347;28;20027;-72
2021/12/27 08:28:23;;;;;;;27.90;14.77;;;;;;;;;;5112661;28;20027;-72
2021/12/27 08:30:49;;;;;;;26.80;15.55;;;;;;;;;;5129179;27;20027;-72
2021/12/27 08:33:15;;;;;;;37.75;17.92;;;;;;;;;;5128823;28;20045;-72
2021/12/27 08:35:42;;;;;;;34.85;17.48;;;;;;;;;;5128881;28;20021;-72
2021/12/27 08:38:08;;;;;;;44.85;20.20;;;;;;;;;;5129074;28;20401;-72
2021/12/27 08:40:35;;;;;;;32.75;17.88;;;;;;;;;;5132553;28;20013;-72
2021/12/27 08:43:02;;;;;;;35.35;17.85;;;;;;;;;;5129177;28;20027;-72
2021/12/27 08:45:28;;;;;;;30.13;16.77;;;;;;;;;;5128678;28;20045;-72
2021/12/27 08:47:55;;;;;;;39.20;19.38;;;;;;;;;;5130802;27;20019;-72
2021/12/27 08:50:21;;;;;;;49.67;23.17;;;;;;;;;;5132694;27;20015;-72
2021/12/27 08:52:50;;;;;;;59.83;30.27;;;;;;;;;;5135105;27;20023;-72
2021/12/27 08:55:17;;;;;;;57.38;27.95;;;;;;;;;;5134026;27;20027;-72
2021/12/27 08:57:43;;;;;;;47.78;24.60;;;;;;;;;;5132500;27;20023;-72
2021/12/27 09:00:10;;;;;;;53.67;27.52;;;;;;;;;;5132657;27;20025;-72
2021/12/27 09:02:37;;;;;;;52.90;27.30;;;;;;;;;;5133580;27;20019;-71
2021/12/27 09:05:04;;;;;;;47.67;25.63;;;;;;;;;;5133682;27;20028;-72
2021/12/27 09:07:31;;;;;;;39.72;21.70;;;;;;;;;;5135538;27;20016;-72
2021/12/27 09:09:57;;;;;;;43.58;24.10;;;;;;;;;;5132499;27;20022;-72
2021/12/27 09:12:24;;;;;;;38.92;21.42;;;;;;;;;;5132377;27;20477;-72
2021/12/27 09:14:50;;;;;;;40.60;24.20;;;;;;;;;;5113965;27;20023;-72
2021/12/27 09:17:17;;;;;;;55.33;28.05;;;;;;;;;;5131745;27;20435;-72
2021/12/27 09:19:44;;;;;;;42.97;25.42;;;;;;;;;;5135341;27;20025;-72
2021/12/27 09:22:11;;;;;;;36.80;23.80;;;;;;;;;;5133031;27;20688;-72
2021/12/27 09:24:37;;;;;;;36.20;18.13;;;;;;;;;;5132320;27;20011;-72
2021/12/27 09:27:03;;;;;;;31.40;17.63;;;;;;;;;;5132268;27;20019;-72
2021/12/27 09:29:30;;;;;;;35.05;18.45;;;;;;;;;;5113724;27;20034;-72
2021/12/27 09:31:56;;;;;;;31.80;17.80;;;;;;;;;;5133491;27;20030;-72
2021/12/27 09:34:23;;;;;;;31.67;18.90;;;;;;;;;;5133741;27;20015;-72
2021/12/27 09:36:49;;;;;;;47.10;26.95;;;;;;;;;;5131765;27;20386;-72
2021/12/27 09:39:16;;;;;;;48.30;27.13;;;;;;;;;;5131977;27;20037;-72
2021/12/27 09:41:42;;;;;;;50.60;27.65;;;;;;;;;;5114667;27;20477;-71
2021/12/27 09:44:09;;;;;;;39.45;23.75;;;;;;;;;;5131874;27;20015;-72
2021/12/27 09:46:35;;;;;;;47.05;25.92;;;;;;;;;;5134857;27;20053;-72
2021/12/27 09:49:04;;;;;;;52.78;27.77;;;;;;;;;;5131323;27;20033;-72
2021/12/27 09:51:34;;;;;;;50.63;27.05;;;;;;;;;;5130773;27;20079;-72
2021/12/27 09:54:01;;;;;;;50.70;29.15;;;;;;;;;;5130770;27;20023;-72
2021/12/27 09:56:27;;;;;;;48.85;28.02;;;;;;;;;;5131585;27;20028;-72
2021/12/27 09:58:54;;;;;;;81.90;48.63;;;;;;;;;;5132468;27;20027;-73
2021/12/27 10:01:20;;;;;;;72.85;41.97;;;;;;;;;;5132530;27;20023;-72
2021/12/27 10:03:57;;;;;;;43.88;26.17;;;;;;;;;;5112219;27;20485;-72
2021/12/27 10:06:24;;;;;;;54.00;31.95;;;;;;;;;;5130722;27;20019;-72
2021/12/27 10:08:52;;;;;;;60.20;34.05;;;;;;;;;;5130868;27;20396;-72
2021/12/27 10:11:30;;;;;;;42.65;28.02;;;;;;;;;;5130914;27;20020;-72
2021/12/27 10:13:58;;;;;;;42.50;27.42;;;;;;;;;;5132438;27;20029;-72
2021/12/27 10:16:24;;;;;;;43.38;28.92;;;;;;;;;;5132296;27;20031;-71
2021/12/27 10:18:58;;;;;;;50.50;32.15;;;;;;;;;;5112305;27;20019;-72
2021/12/27 10:21:25;;;;;;;50.33;30.80;;;;;;;;;;5131379;27;20033;-72
2021/12/27 10:24:09;;;;;;;43.15;26.85;;;;;;;;;;5130324;27;20384;-72
2021/12/27 10:26:36;;;;;;;35.38;22.17;;;;;;;;;;5130544;27;20027;-72
2021/12/27 10:29:09;;;;;;;38.13;20.63;;;;;;;;;;5131642;27;20037;-72
2021/12/27 10:31:54;;;;;;;35.28;22.00;;;;;;;;;;5134261;27;20023;-72
2021/12/27 10:34:21;;;;;;;35.13;22.02;;;;;;;;;;5132355;27;20019;-73
2021/12/27 10:37:17;;;;;;;29.40;17.75;;;;;;;;;;5130123;27;20034;-72
2021/12/27 10:39:43;;;;;;;28.40;18.52;;;;;;;;;;5110790;27;20037;-72
2021/12/27 10:42:11;;;;;;;31.17;20.02;;;;;;;;;;5130088;27;20469;-72
2021/12/27 10:44:38;;;;;;;38.65;23.90;;;;;;;;;;5129670;27;20107;-72
2021/12/27 10:47:05;;;;;;;41.03;24.55;;;;;;;;;;5130879;27;20022;-72
2021/12/27 10:49:45;;;;;;;44.78;24.65;;;;;;;;;;5133392;27;20031;-72
2021/12/27 10:52:11;;;;;;;44.92;26.25;;;;;;;;;;5132246;27;20376;-72
2021/12/27 10:54:38;;;;;;;37.30;23.55;;;;;;;;;;5129862;27;20025;-72
2021/12/27 10:57:04;;;;;;;30.60;18.65;;;;;;;;;;5129320;27;20045;-72
2021/12/27 10:59:31;;;;;;;46.58;26.65;;;;;;;;;;5131263;27;20075;-72
2021/12/27 11:02:07;;;;;;;41.65;27.08;;;;;;;;;;5131509;27;20485;-72
2021/12/27 11:04:34;;;;;;;54.53;34.85;;;;;;;;;;5132964;27;20031;-72
2021/12/27 11:07:00;;;;;;;42.90;27.40;;;;;;;;;;5129331;27;20015;-72
2021/12/27 11:09:27;;;;;;;47.35;28.65;;;;;;;;;;5129714;27;20484;-72
2021/12/27 11:11:53;;;;;;;39.78;26.50;;;;;;;;;;5129329;27;20023;-72
2021/12/27 11:14:19;;;;;;;36.95;25.33;;;;;;;;;;5129764;27;20382;-72
2021/12/27 11:16:46;;;;;;;37.67;24.00;;;;;;;;;;5132057;27;20033;-72
2021/12/27 11:19:12;;;;;;;41.92;27.08;;;;;;;;;;5130962;27;20037;-72
2021/12/27 11:21:42;;;;;;;39.78;25.20;;;;;;;;;;5129282;27;20037;-72
2021/12/27 11:24:09;;;;;;;42.67;25.92;;;;;;;;;;5113755;27;20019;-72
2021/12/27 11:26:40;;;;;;;39.03;23.95;;;;;;;;;;5129731;27;20075;-72
2021/12/27 11:29:20;;;;;;;35.57;24.10;;;;;;;;;;5129775;27;20049;-72
2021/12/27 11:31:47;;;;;;;43.30;27.42;;;;;;;;;;5129048;27;20027;-72
2021/12/27 11:34:14;;;;;;;48.03;29.33;;;;;;;;;;5132001;27;20023;-72
2021/12/27 11:36:43;;;;;;;35.92;23.42;;;;;;;;;;5129134;27;20549;-73
2021/12/27 11:39:25;;;;;;;42.90;28.50;;;;;;;;;;5130312;27;20015;-73
2021/12/27 11:41:57;;;;;;;35.67;23.63;;;;;;;;;;5128926;27;20027;-72
2021/12/27 11:44:44;;;;;;;40.95;27.45;;;;;;;;;;5128918;27;20046;-72
2021/12/27 11:47:11;;;;;;;44.30;30.88;;;;;;;;;;5113521;27;20500;-72
2021/12/27 11:49:45;;;;;;;61.22;38.83;;;;;;;;;;5128760;27;20030;-72
2021/12/27 11:52:14;;;;;;;45.65;31.63;;;;;;;;;;5131576;27;20033;-72
2021/12/27 11:54:49;;;;;;;36.38;25.05;;;;;;;;;;5129033;27;20019;-72
2021/12/27 11:57:34;;;;;;;29.52;18.48;;;;;;;;;;5128433;27;20031;-72
2021/12/27 12:00:01;;;;;;;14.48;9.93;;;;;;;;;;5128920;27;20482;-73
2021/12/27 12:02:28;;;;;;;15.05;8.85;;;;;;;;;;5129375;27;20126;-72
2021/12/27 12:04:55;;;;;;;12.70;7.80;;;;;;;;;;5112967;28;20031;-72
2021/12/27 12:07:34;;;;;;;11.13;7.38;;;;;;;;;;5130641;28;20030;-72
2021/12/27 12:10:20;;;;;;;14.43;8.00;;;;;;;;;;5128820;28;20025;-70
2021/12/27 12:13:06;;;;;;;22.02;9.32;;;;;;;;;;5128323;28;20041;-72
2021/12/27 12:15:34;;;;;;;19.40;10.07;;;;;;;;;;5128583;28;20035;-72
2021/12/27 12:18:15;;;;;;;17.45;10.32;;;;;;;;;;5129722;28;20508;-72
2021/12/27 12:20:41;;;;;;;;;;;;;;;;;;5129529;28;20015;-72
2021/12/27 12:23:09;;;;;;;23.75;13.25;;;;;;;;;;5115533;27;20388;-72
2021/12/27 12:25:36;;;;;;;52.92;24.85;;;;;;;;;;5136660;27;20020;-72
2021/12/27 12:28:20;;;;;;;11.75;6.50;;;;;;;;;;5132947;27;20489;-72
2021/12/27 12:30:48;;;;;;;6.43;3.53;;;;;;;;;;5132703;27;20026;-72
2021/12/27 12:33:14;;;;;;;17.45;9.88;;;;;;;;;;5132347;27;20066;-71
2021/12/27 12:35:41;;;;;;;21.10;11.85;;;;;;;;;;5133125;27;20015;-72
2021/12/27 12:38:11;;;;;;;9.07;5.15;;;;;;;;;;5132983;27;20039;-72
2021/12/27 12:40:38;;;;;;;11.18;5.85;;;;;;;;;;5131946;27;20079;-73
2021/12/27 12:43:04;;;;;;;14.85;6.75;;;;;;;;;;5132489;27;20035;-72
2021/12/27 12:45:31;;;;;;;9.07;5.47;;;;;;;;;;5132386;27;20057;-72
2021/12/27 12:47:58;;;;;;;12.30;8.05;;;;;;;;;;5132113;27;20033;-72
2021/12/27 12:50:25;;;;;;;7.88;3.33;;;;;;;;;;5132359;27;20278;-72
2021/12/27 12:52:55;;;;;;;12.43;6.57;;;;;;;;;;5134284;27;20027;-73
2021/12/27 12:55:22;;;;;;;13.88;8.10;;;;;;;;;;5133622;27;20427;-72
2021/12/27 12:57:50;;;;;;;11.85;5.47;;;;;;;;;;5133020;27;20069;-72
2021/12/27 13:00:33;;;;;;;16.10;9.25;;;;;;;;;;5132154;27;20015;-72
2021/12/27 13:03:12;;;;;;;13.73;7.05;;;;;;;;;;5131632;27;20474;-73
2021/12/27 13:05:39;;;;;;;13.38;5.10;;;;;;;;;;5132309;27;20027;-72
2021/12/27 13:08:10;;;;;;;30.10;9.27;;;;;;;;;;5132586;27;20018;-72
2021/12/27 13:10:37;;;;;;;30.25;7.72;;;;;;;;;;5135518;27;20397;-72
2021/12/27 13:13:13;;;;;;;28.15;7.70;;;;;;;;;;5131619;27;20023;-72
2021/12/27 13:15:40;;;;;;;18.75;5.85;;;;;;;;;;5131680;27;20027;-72
2021/12/27 13:18:08;;;;;;;20.38;5.80;;;;;;;;;;5131431;27;20034;-72
2021/12/27 13:20:39;;;;;;;30.40;7.45;;;;;;;;;;5131898;27;20021;-72
2021/12/27 13:23:06;;;;;;;26.45;7.40;;;;;;;;;;5132465;27;20506;-72
2021/12/27 13:25:39;;;;;;;38.25;10.93;;;;;;;;;;5134295;27;20038;-72
2021/12/27 13:28:07;;;;;;;41.58;10.40;;;;;;;;;;5115133;27;20027;-72
2021/12/27 13:30:43;;;;;;;25.83;6.75;;;;;;;;;;5131872;27;20053;-73
2021/12/27 13:33:10;;;;;;;25.95;7.78;;;;;;;;;;5131021;27;20019;-72
2021/12/27 13:35:36;;;;;;;25.02;7.85;;;;;;;;;;5132399;27;20022;-72
2021/12/27 13:38:02;;;;;;;27.05;6.10;;;;;;;;;;5132333;27;20047;-72
2021/12/27 13:40:29;;;;;;;29.55;6.43;;;;;;;;;;5134368;27;20027;-72
2021/12/27 13:43:02;;;;;;;17.08;4.03;;;;;;;;;;5131172;27;20011;-72
2021/12/27 13:45:39;;;;;;;19.70;3.97;;;;;;;;;;5130993;27;20535;-72
2021/12/27 13:48:06;;;;;;;19.55;3.95;;;;;;;;;;5131006;27;20528;-72
2021/12/27 13:50:32;;;;;;;25.08;4.47;;;;;;;;;;5131305;27;20015;-71
2021/12/27 13:52:59;;;;;;;20.42;4.80;;;;;;;;;;5132645;27;20032;-71
2021/12/27 13:55:27;;;;;;;20.90;5.32;;;;;;;;;;5133181;27;20019;-71
2021/12/27 13:57:53;;;;;;;20.58;4.50;;;;;;;;;;5130753;27;20486;-72
2021/12/27 14:00:29;;;;;;;20.67;4.28;;;;;;;;;;5130636;27;20359;-72
2021/12/27 14:02:56;;;;;;;20.77;5.13;;;;;;;;;;5112697;27;20025;-72
2021/12/27 14:05:27;;;;;;;26.00;5.38;;;;;;;;;;5131557;27;20031;-73
2021/12/27 14:07:53;;;;;;;21.45;4.50;;;;;;;;;;5133048;27;20029;-72
2021/12/27 14:10:27;;;;;;;24.35;5.75;;;;;;;;;;5132225;27;20026;-72
2021/12/27 14:13:00;;;;;;;24.40;7.80;;;;;;;;;;5130594;27;20027;-72
2021/12/27 14:15:28;;;;;;;30.75;6.45;;;;;;;;;;5131961;27;20041;-72
2021/12/27 14:17:54;;;;;;;22.75;5.03;;;;;;;;;;5130562;27;20037;-72
2021/12/27 14:20:20;;;;;;;24.40;4.63;;;;;;;;;;5130656;27;20393;-72
2021/12/27 14:22:54;;;;;;;19.67;4.03;;;;;;;;;;5132709;27;20023;-73
2021/12/27 14:25:22;;;;;;;22.65;4.53;;;;;;;;;;5132034;27;20023;-72
2021/12/27 14:27:56;;;;;;;26.90;4.68;;;;;;;;;;5130190;27;20015;-72
2021/12/27 14:30:24;;;;;;;24.00;5.30;;;;;;;;;;5130852;27;20022;-72
2021/12/27 14:32:56;;;;;;;25.27;4.95;;;;;;;;;;5130262;27;20021;-72